Time;durP1;ratioP1;P1;durP2;ratioP2;P2;SDS_P1;SDS_P2;PMS_P1;PMS_P2;Temp;Humidity;BMP_temperature;BMP_pressure;BME280_temperature;BME280_humidity;BME280_pressure;Samples;Min_cycle;Max_cycle;Signal;HPM_P1;HPM_P2
2021/05/02 00:01:49;;;;;;;;;31.67;30.67;;;;;;;;8728418;40;9885;-56
2021/05/02 00:07:52;;;;;;;;;34.33;32.67;;;;;;;;8730247;40;9929;-57
2021/05/02 00:13:53;;;;;;;;;36.00;31.67;;;;;;;;8728568;40;9985;-57
2021/05/02 00:19:56;;;;;;;;;38.00;31.67;;;;;;;;8730400;40;10444;-57
2021/05/02 00:25:58;;;;;;;;;31.33;30.00;;;;;;;;8729253;40;9851;-56
2021/05/02 00:32:00;;;;;;;;;32.33;30.67;;;;;;;;8727406;40;9924;-57
2021/05/02 00:38:02;;;;;;;;;41.00;37.00;;;;;;;;8729793;40;9971;-57
2021/05/02 00:44:23;;;;;;;;;36.67;32.33;;;;;;;;8729746;40;9918;-58
2021/05/02 00:50:32;;;;;;;;;42.00;38.67;;;;;;;;8728686;40;9925;-57
2021/05/02 00:56:39;;;;;;;;;35.00;34.00;;;;;;;;8727667;40;10003;-57
2021/05/02 01:02:42;;;;;;;;;39.33;37.00;;;;;;;;8729785;40;10412;-57
2021/05/02 01:08:47;;;;;;;;;31.00;30.33;;;;;;;;8728606;40;9933;-57
2021/05/02 01:14:53;;;;;;;;;37.00;33.00;;;;;;;;8727457;40;9847;-57
2021/05/02 01:20:57;;;;;;;;;42.00;36.67;;;;;;;;8729334;40;9875;-57
2021/05/02 01:26:58;;;;;;;;;36.00;31.67;;;;;;;;8728427;40;9953;-56
2021/05/02 01:33:00;;;;;;;;;39.67;38.00;;;;;;;;8729297;40;9928;-57
2021/05/02 01:39:05;;;;;;;;;38.00;34.33;;;;;;;;8727249;40;9863;-57
2021/05/02 01:45:08;;;;;;;;;37.33;35.33;;;;;;;;8727139;40;10065;-56
2021/05/02 01:51:11;;;;;;;;;35.00;33.33;;;;;;;;8730499;40;10007;-58
2021/05/02 01:57:25;;;;;;;;;37.00;35.67;;;;;;;;8750359;40;9885;-57
2021/05/02 02:03:27;;;;;;;;;35.67;32.67;;;;;;;;8752598;40;9848;-57
2021/05/02 02:09:29;;;;;;;;;39.00;36.00;;;;;;;;8750528;40;9914;-57
2021/05/02 02:15:31;;;;;;;;;44.00;36.33;;;;;;;;8751581;40;9916;-56
2021/05/02 02:21:33;;;;;;;;;35.67;33.33;;;;;;;;8750601;40;9914;-57
2021/05/02 02:27:35;;;;;;;;;42.00;36.33;;;;;;;;8749921;40;9930;-57
2021/05/02 02:33:40;;;;;;;;;38.00;35.33;;;;;;;;8752513;40;10463;-57
2021/05/02 02:40:03;;;;;;;;;43.00;37.67;;;;;;;;8751128;40;9886;-57
2021/05/02 02:46:10;;;;;;;;;45.33;40.33;;;;;;;;8750891;40;10264;-56
2021/05/02 02:52:18;;;;;;;;;45.67;40.33;;;;;;;;8750753;40;10048;-56
2021/05/02 02:58:20;;;;;;;;;35.00;30.33;;;;;;;;8743974;40;9877;-57
2021/05/02 03:04:24;;;;;;;;;50.00;43.00;;;;;;;;8751725;40;9833;-56
2021/05/02 03:10:26;;;;;;;;;46.33;40.00;;;;;;;;8749031;40;9981;-56
2021/05/02 03:16:29;;;;;;;;;43.33;39.67;;;;;;;;8741206;40;9845;-56
2021/05/02 03:22:47;;;;;;;;;48.00;39.00;;;;;;;;8750352;40;9881;-57
2021/05/02 03:28:53;;;;;;;;;48.67;38.00;;;;;;;;8751141;40;9911;-57
2021/05/02 03:34:56;;;;;;;;;43.00;39.67;;;;;;;;8751061;40;9922;-57
2021/05/02 03:40:58;;;;;;;;;52.67;44.00;;;;;;;;8747232;40;9902;-56
2021/05/02 03:47:00;;;;;;;;;49.67;41.67;;;;;;;;8750797;40;9948;-57
2021/05/02 03:53:03;;;;;;;;;46.00;41.67;;;;;;;;8749491;40;9855;-56
2021/05/02 03:59:10;;;;;;;;;47.67;42.67;;;;;;;;8749272;40;9754;-57
2021/05/02 04:05:12;;;;;;;;;44.00;38.33;;;;;;;;8750495;40;9880;-57
2021/05/02 04:11:13;;;;;;;;;44.00;39.33;;;;;;;;8748502;40;9949;-57
2021/05/02 04:17:15;;;;;;;;;41.33;35.00;;;;;;;;8749638;40;9914;-57
2021/05/02 04:23:18;;;;;;;;;45.67;40.00;;;;;;;;8749147;40;9924;-57
2021/05/02 04:29:27;;;;;;;;;39.67;38.67;;;;;;;;8753155;40;9766;-57
2021/05/02 04:35:29;;;;;;;;;42.67;36.67;;;;;;;;8753160;40;9983;-57
2021/05/02 04:41:31;;;;;;;;;32.00;29.67;;;;;;;;8751965;40;10795;-57
2021/05/02 04:47:32;;;;;;;;;32.67;26.67;;;;;;;;8754576;40;9897;-58
2021/05/02 04:53:34;;;;;;;;;40.67;37.67;;;;;;;;8751839;40;10183;-58
2021/05/02 04:59:35;;;;;;;;;46.67;41.33;;;;;;;;8744402;40;9782;-57
2021/05/02 05:05:36;;;;;;;;;39.33;36.00;;;;;;;;8752040;40;9937;-57
2021/05/02 05:11:38;;;;;;;;;40.33;35.00;;;;;;;;8752737;40;10075;-57
2021/05/02 05:17:39;;;;;;;;;43.67;37.33;;;;;;;;8753547;40;10153;-57
2021/05/02 05:23:41;;;;;;;;;42.00;36.67;;;;;;;;8751225;40;9983;-56
2021/05/02 05:29:44;;;;;;;;;52.33;40.67;;;;;;;;8751825;40;9859;-57
2021/05/02 05:35:46;;;;;;;;;48.67;41.67;;;;;;;;8751817;40;10048;-57
2021/05/02 05:41:47;;;;;;;;;48.33;42.00;;;;;;;;8750517;40;11614;-56
2021/05/02 05:47:51;;;;;;;;;48.00;41.67;;;;;;;;8752249;40;10039;-57
2021/05/02 05:53:52;;;;;;;;;50.00;45.33;;;;;;;;8751199;40;10179;-58
2021/05/02 05:59:55;;;;;;;;;47.00;44.33;;;;;;;;8751097;40;10355;-56
2021/05/02 06:05:56;;;;;;;;;47.33;40.00;;;;;;;;8752079;40;10763;-57
2021/05/02 06:11:58;;;;;;;;;54.00;44.33;;;;;;;;8751143;40;10054;-57
2021/05/02 06:17:59;;;;;;;;;48.00;42.00;;;;;;;;8752135;40;10284;-57
2021/05/02 06:24:02;;;;;;;;;46.25;41.75;;;;;;;;8750258;40;10614;-58
2021/05/02 06:30:05;;;;;;;;;41.25;38.75;;;;;;;;8751877;40;11236;-57
2021/05/02 06:36:07;;;;;;;;;40.00;40.00;;;;;;;;8751314;40;10689;-58
2021/05/02 06:42:08;;;;;;;;;43.50;40.25;;;;;;;;8750193;40;10593;-58
2021/05/02 06:48:15;;;;;;;;;44.00;39.75;;;;;;;;8751697;40;10801;-58
2021/05/02 06:54:16;;;;;;;;;38.00;36.75;;;;;;;;8750775;40;11069;-57
2021/05/02 07:00:18;;;;;;;;;34.50;32.25;;;;;;;;8751577;40;10389;-58
2021/05/02 07:06:19;;;;;;;;;40.25;38.50;;;;;;;;8751336;40;10568;-58
2021/05/02 07:12:23;;;;;;;;;38.50;37.25;;;;;;;;8749790;40;10609;-56
2021/05/02 07:18:33;;;;;;;;;22.50;22.50;;;;;;;;8750680;40;10308;-57
2021/05/02 07:24:34;;;;;;;;;30.00;28.75;;;;;;;;8750480;40;10740;-59
2021/05/02 07:30:36;;;;;;;;;28.50;27.25;;;;;;;;8750575;40;10454;-58
2021/05/02 07:36:37;;;;;;;;;28.00;27.25;;;;;;;;8748715;40;10446;-56
2021/05/02 07:42:39;;;;;;;;;29.50;25.75;;;;;;;;8748699;40;10460;-57
2021/05/02 07:48:41;;;;;;;;;30.75;30.75;;;;;;;;8751334;40;10320;-58
2021/05/02 07:54:44;;;;;;;;;30.75;26.50;;;;;;;;8749328;40;10615;-58
2021/05/02 08:00:45;;;;;;;;;32.00;26.25;;;;;;;;8750617;40;10346;-58
2021/05/02 08:06:47;;;;;;;;;34.75;29.75;;;;;;;;8743847;40;10652;-57
2021/05/02 08:12:50;;;;;;;;;39.25;33.00;;;;;;;;8752091;40;10611;-57
2021/05/02 08:18:52;;;;;;;;;30.75;29.25;;;;;;;;8753926;40;10687;-57
2021/05/02 08:24:54;;;;;;;;;32.75;30.25;;;;;;;;8753020;40;10634;-57
2021/05/02 08:30:56;;;;;;;;;32.50;32.50;;;;;;;;8752855;40;10582;-58
2021/05/02 08:36:57;;;;;;;;;31.00;28.75;;;;;;;;8752421;40;10652;-57
2021/05/02 08:43:07;;;;;;;;;32.50;29.25;;;;;;;;8752321;40;11119;-58
2021/05/02 08:49:08;;;;;;;;;32.50;27.50;;;;;;;;8743798;40;10720;-56
2021/05/02 08:55:10;;;;;;;;;32.00;27.50;;;;;;;;8751221;40;10613;-57
2021/05/02 09:01:11;;;;;;;;;24.75;24.75;;;;;;;;8752903;40;10552;-57
2021/05/02 09:07:16;;;;;;;;;22.50;22.00;;;;;;;;8752248;40;10380;-58
2021/05/02 09:13:17;;;;;;;;;22.75;20.50;;;;;;;;8750946;40;10407;-57
2021/05/02 09:19:29;;;;;;;;;23.25;22.50;;;;;;;;8752642;40;10576;-57
2021/05/02 09:25:47;;;;;;;;;17.00;17.00;;;;;;;;8750498;40;10342;-57
2021/05/02 09:31:48;;;;;;;;;20.75;18.25;;;;;;;;8752650;40;10455;-57
2021/05/02 09:38:06;;;;;;;;;21.25;20.00;;;;;;;;8751883;40;10536;-57
2021/05/02 09:44:10;;;;;;;;;25.50;24.50;;;;;;;;8752033;40;10531;-57
2021/05/02 09:50:23;;;;;;;;;24.75;21.25;;;;;;;;8752680;40;10432;-57
2021/05/02 09:56:31;;;;;;;;;18.00;18.00;;;;;;;;8750828;40;10313;-57
2021/05/02 10:02:33;;;;;;;;;20.50;19.75;;;;;;;;8752038;40;10383;-56
2021/05/02 10:08:36;;;;;;;;;20.50;20.50;;;;;;;;8750213;40;10321;-58
2021/05/02 10:14:42;;;;;;;;;23.75;18.50;;;;;;;;8752754;40;10419;-57
2021/05/02 10:20:46;;;;;;;;;17.50;15.75;;;;;;;;8750922;40;10378;-57
2021/05/02 10:26:50;;;;;;;;;19.50;15.25;;;;;;;;8750374;40;10507;-57
2021/05/02 10:32:59;;;;;;;;;15.00;14.00;;;;;;;;8751060;40;10375;-57
2021/05/02 10:39:01;;;;;;;;;20.50;19.50;;;;;;;;8750607;40;10343;-56
2021/05/02 10:45:45;;;;;;;;;15.00;13.75;;;;;;;;8742579;40;11141;-58
2021/05/02 10:51:49;;;;;;;;;13.25;11.25;;;;;;;;8750920;40;10348;-58
2021/05/02 10:58:03;;;;;;;;;24.25;17.75;;;;;;;;8750158;40;10428;-58
2021/05/02 11:04:56;;;;;;;;;22.75;21.75;;;;;;;;8750287;40;10528;-57
2021/05/02 11:10:58;;;;;;;;;22.75;21.75;;;;;;;;8752225;40;10437;-58
2021/05/02 11:17:02;;;;;;;;;69.00;55.00;;;;;;;;8750451;40;10662;-58
2021/05/02 11:23:04;;;;;;;;;66.33;53.00;;;;;;;;8750594;40;10116;-58
2021/05/02 11:29:17;;;;;;;;;13.25;10.50;;;;;;;;8750680;40;10383;-57
2021/05/02 11:35:38;;;;;;;;;7.75;6.00;;;;;;;;8749959;40;10390;-58
2021/05/02 11:42:00;;;;;;;;;48.75;40.00;;;;;;;;8750899;40;10376;-57
2021/05/02 11:48:04;;;;;;;;;19.75;17.50;;;;;;;;8750170;40;10361;-57
2021/05/02 11:54:12;;;;;;;;;60.25;48.00;;;;;;;;8750448;40;10651;-58
2021/05/02 12:00:14;;;;;;;;;33.00;31.25;;;;;;;;8749545;40;10379;-57
2021/05/02 12:06:25;;;;;;;;;10.00;8.00;;;;;;;;8739236;40;10372;-58
2021/05/02 12:12:36;;;;;;;;;7.75;6.25;;;;;;;;8738377;40;10487;-59
2021/05/02 12:18:57;;;;;;;;;8.25;8.00;;;;;;;;8725636;40;10200;-58
2021/05/02 12:24:58;;;;;;;;;7.00;7.00;;;;;;;;8726779;40;10355;-58
2021/05/02 12:31:00;;;;;;;;;6.25;6.00;;;;;;;;8725242;40;10393;-58
2021/05/02 12:37:09;;;;;;;;;14.00;12.50;;;;;;;;8716624;40;10322;-58
2021/05/02 12:43:25;;;;;;;;;15.50;12.75;;;;;;;;8724971;40;10565;-56
2021/05/02 12:49:29;;;;;;;;;7.50;6.75;;;;;;;;8726447;40;10333;-57
2021/05/02 12:55:31;;;;;;;;;66.00;54.33;;;;;;;;8729227;40;10446;-58
2021/05/02 13:01:33;;;;;;;;;8.50;8.50;;;;;;;;8728578;40;10553;-60
2021/05/02 13:07:40;;;;;;;;;7.00;6.25;;;;;;;;8728758;40;10814;-58
2021/05/02 13:13:42;;;;;;;;;8.00;7.25;;;;;;;;8727557;40;10329;-57
2021/05/02 13:19:57;;;;;;;;;5.50;5.50;;;;;;;;8729395;40;10407;-57
2021/05/02 13:26:19;;;;;;;;;10.50;6.00;;;;;;;;8747979;40;10257;-57
2021/05/02 13:32:20;;;;;;;;;9.00;6.25;;;;;;;;8738878;40;10558;-57
2021/05/02 13:38:22;;;;;;;;;9.25;6.00;;;;;;;;8729070;40;10946;-58
2021/05/02 13:44:25;;;;;;;;;10.50;6.75;;;;;;;;8727928;40;10390;-57
2021/05/02 13:50:27;;;;;;;;;3.50;2.25;;;;;;;;8728154;40;10382;-57
2021/05/02 13:56:29;;;;;;;;;7.00;6.00;;;;;;;;8727084;40;10302;-58
2021/05/02 14:02:31;;;;;;;;;10.75;7.00;;;;;;;;8726922;40;10382;-58
2021/05/02 14:08:33;;;;;;;;;5.25;5.25;;;;;;;;8729530;40;10440;-58
2021/05/02 14:14:34;;;;;;;;;10.00;7.50;;;;;;;;8726604;40;10299;-58
2021/05/02 14:20:36;;;;;;;;;9.50;7.25;;;;;;;;8727543;40;10317;-58
2021/05/02 14:26:38;;;;;;;;;8.25;7.00;;;;;;;;8726924;40;10226;-58
2021/05/02 14:32:39;;;;;;;;;4.75;4.50;;;;;;;;8726615;40;10431;-58
2021/05/02 14:38:40;;;;;;;;;9.00;6.00;;;;;;;;8728113;40;9577;-57
2021/05/02 14:44:42;;;;;;;;;7.25;6.25;;;;;;;;8726301;40;10334;-57
2021/05/02 14:50:43;;;;;;;;;7.00;7.00;;;;;;;;8727512;40;10500;-59
2021/05/02 14:56:45;;;;;;;;;8.50;7.75;;;;;;;;8727047;40;10283;-58
2021/05/02 15:02:48;;;;;;;;;9.00;9.00;;;;;;;;8719465;40;10407;-57
2021/05/02 15:08:50;;;;;;;;;14.50;10.00;;;;;;;;8727626;40;10481;-59
2021/05/02 15:14:51;;;;;;;;;8.00;7.25;;;;;;;;8749424;40;10339;-57
2021/05/02 15:20:53;;;;;;;;;7.50;7.00;;;;;;;;8751184;40;10343;-58
2021/05/02 15:26:55;;;;;;;;;10.00;9.00;;;;;;;;8749017;40;10397;-57
2021/05/02 15:32:57;;;;;;;;;14.00;10.50;;;;;;;;8751495;40;10381;-57
2021/05/02 15:38:59;;;;;;;;;7.50;7.25;;;;;;;;8751108;40;10348;-58
2021/05/02 15:45:01;;;;;;;;;4.25;3.75;;;;;;;;8748593;40;10291;-57
2021/05/02 15:51:03;;;;;;;;;11.75;9.75;;;;;;;;8750138;40;10404;-58
2021/05/02 15:57:04;;;;;;;;;9.50;7.00;;;;;;;;8750138;40;10440;-58
2021/05/02 16:03:06;;;;;;;;;7.00;5.00;;;;;;;;8749166;40;10286;-57
2021/05/02 16:09:07;;;;;;;;;4.50;4.50;;;;;;;;8748771;40;10540;-57
2021/05/02 16:15:09;;;;;;;;;7.50;5.75;;;;;;;;8749626;40;10384;-58
2021/05/02 16:21:10;;;;;;;;;9.00;6.50;;;;;;;;8751257;40;10384;-58
2021/05/02 16:27:12;;;;;;;;;13.75;9.00;;;;;;;;8753442;40;10385;-58
2021/05/02 16:33:15;;;;;;;;;7.00;6.00;;;;;;;;8753468;40;10489;-58
2021/05/02 16:39:18;;;;;;;;;9.50;5.75;;;;;;;;8754226;40;10809;-57
2021/05/02 16:45:20;;;;;;;;;8.25;6.25;;;;;;;;8751732;40;10277;-57
2021/05/02 16:51:22;;;;;;;;;8.50;6.50;;;;;;;;8754022;40;10856;-57
2021/05/02 16:57:23;;;;;;;;;7.25;7.25;;;;;;;;8752128;40;10305;-57
2021/05/02 17:03:25;;;;;;;;;9.50;8.50;;;;;;;;8751823;40;10254;-57
2021/05/02 17:09:26;;;;;;;;;6.75;6.00;;;;;;;;8753654;40;10285;-58
2021/05/02 17:15:28;;;;;;;;;9.75;7.00;;;;;;;;8751256;40;10368;-58
2021/05/02 17:21:30;;;;;;;;;10.50;10.00;;;;;;;;8752309;40;10237;-57
2021/05/02 17:27:31;;;;;;;;;19.25;13.25;;;;;;;;8752132;40;10308;-57
2021/05/02 17:33:46;;;;;;;;;9.00;8.75;;;;;;;;8750598;40;10291;-59
2021/05/02 17:39:48;;;;;;;;;9.25;8.75;;;;;;;;8753120;40;10254;-57
2021/05/02 17:45:50;;;;;;;;;9.75;9.50;;;;;;;;8751357;40;10382;-57
2021/05/02 17:51:53;;;;;;;;;9.25;9.25;;;;;;;;8752324;40;10418;-58
2021/05/02 17:57:55;;;;;;;;;10.00;9.00;;;;;;;;8751237;40;10334;-58
2021/05/02 18:03:56;;;;;;;;;7.00;5.00;;;;;;;;8751996;40;10850;-56
2021/05/02 18:09:58;;;;;;;;;10.50;6.25;;;;;;;;8752516;40;10801;-58
2021/05/02 18:15:59;;;;;;;;;9.25;7.25;;;;;;;;8751402;40;10812;-57
2021/05/02 18:22:01;;;;;;;;;9.75;9.75;;;;;;;;8753512;40;10333;-58
2021/05/02 18:28:03;;;;;;;;;6.75;5.00;;;;;;;;8751072;40;10972;-57
2021/05/02 18:34:06;;;;;;;;;10.25;9.00;;;;;;;;8750527;40;10386;-57
2021/05/02 18:40:07;;;;;;;;;10.00;9.50;;;;;;;;8752592;40;10388;-56
2021/05/02 18:46:09;;;;;;;;;11.75;9.75;;;;;;;;8750170;40;10329;-58
2021/05/02 18:52:11;;;;;;;;;12.50;11.50;;;;;;;;8752255;40;10340;-58
2021/05/02 18:58:13;;;;;;;;;16.50;12.00;;;;;;;;8750317;40;10943;-56
2021/05/02 19:04:14;;;;;;;;;13.75;11.75;;;;;;;;8750372;40;10427;-58
2021/05/02 19:10:16;;;;;;;;;12.75;11.50;;;;;;;;8751121;40;10720;-57
2021/05/02 19:16:17;;;;;;;;;10.00;6.75;;;;;;;;8748276;40;10355;-58
2021/05/02 19:22:19;;;;;;;;;15.25;9.75;;;;;;;;8749742;40;10487;-57
2021/05/02 19:28:20;;;;;;;;;12.25;10.25;;;;;;;;8741731;40;10534;-57
2021/05/02 19:34:22;;;;;;;;;10.25;10.00;;;;;;;;8750465;40;10396;-56
2021/05/02 19:40:27;;;;;;;;;17.25;10.25;;;;;;;;8751414;40;10485;-56
2021/05/02 19:46:29;;;;;;;;;10.50;10.00;;;;;;;;8750314;40;10427;-58
2021/05/02 19:52:30;;;;;;;;;10.75;6.75;;;;;;;;8750103;40;10422;-57
2021/05/02 19:58:32;;;;;;;;;11.25;11.00;;;;;;;;8751659;40;10440;-57
2021/05/02 20:04:34;;;;;;;;;9.25;8.00;;;;;;;;8752109;40;10805;-57
2021/05/02 20:10:37;;;;;;;;;9.50;9.50;;;;;;;;8754549;40;10433;-59
2021/05/02 20:16:38;;;;;;;;;9.25;6.50;;;;;;;;8753519;40;10534;-59
2021/05/02 20:22:41;;;;;;;;;11.00;9.50;;;;;;;;8753706;40;10417;-59
2021/05/02 20:28:43;;;;;;;;;8.25;6.50;;;;;;;;8729242;40;10563;-59
2021/05/02 20:34:48;;;;;;;;;8.75;8.25;;;;;;;;8727657;40;10587;-57
2021/05/02 20:40:49;;;;;;;;;9.00;5.50;;;;;;;;8730395;40;10336;-57
2021/05/02 20:46:50;;;;;;;;;6.00;5.00;;;;;;;;8729152;40;10391;-56
2021/05/02 20:52:52;;;;;;;;;9.50;9.00;;;;;;;;8729160;40;10459;-57
2021/05/02 20:58:54;;;;;;;;;7.25;5.50;;;;;;;;8728838;40;10468;-58
2021/05/02 21:04:55;;;;;;;;;8.75;6.25;;;;;;;;8728895;40;10354;-57
2021/05/02 21:10:57;;;;;;;;;9.75;6.75;;;;;;;;8728511;40;10517;-56
2021/05/02 21:16:58;;;;;;;;;6.50;5.75;;;;;;;;8702654;40;10691;-57
2021/05/02 21:23:04;;;;;;;;;6.75;6.25;;;;;;;;8728598;40;10618;-57
2021/05/02 21:29:06;;;;;;;;;8.75;6.25;;;;;;;;8728847;40;10425;-58
2021/05/02 21:35:08;;;;;;;;;7.50;7.50;;;;;;;;8728155;40;10453;-57
2021/05/02 21:41:09;;;;;;;;;6.75;6.00;;;;;;;;8728188;40;10588;-57
2021/05/02 21:47:12;;;;;;;;;15.50;6.75;;;;;;;;8727388;40;10587;-57
2021/05/02 21:53:16;;;;;;;;;10.50;7.50;;;;;;;;8730200;40;10650;-57
2021/05/02 21:59:22;;;;;;;;;8.00;7.50;;;;;;;;8727203;40;10646;-57
2021/05/02 22:05:23;;;;;;;;;9.50;7.50;;;;;;;;8728073;40;10686;-57
2021/05/02 22:11:25;;;;;;;;;11.25;9.50;;;;;;;;8727825;40;10642;-57
2021/05/02 22:17:26;;;;;;;;;6.50;6.25;;;;;;;;8727229;40;10555;-56
2021/05/02 22:23:29;;;;;;;;;8.00;6.50;;;;;;;;8728479;40;10566;-56
2021/05/02 22:29:31;;;;;;;;;11.00;7.00;;;;;;;;8726727;40;10550;-57
2021/05/02 22:35:32;;;;;;;;;10.50;8.00;;;;;;;;8726552;40;10415;-57
2021/05/02 22:41:34;;;;;;;;;8.00;7.75;;;;;;;;8728351;40;10494;-57
2021/05/02 22:47:36;;;;;;;;;8.00;8.00;;;;;;;;8727428;40;10755;-57
2021/05/02 22:53:37;;;;;;;;;9.75;7.25;;;;;;;;8727997;40;10813;-57
2021/05/02 22:59:39;;;;;;;;;8.00;8.00;;;;;;;;8727337;40;10556;-57
2021/05/02 23:05:42;;;;;;;;;10.00;6.75;;;;;;;;8726416;40;10452;-58
2021/05/02 23:11:43;;;;;;;;;10.75;7.75;;;;;;;;8728256;40;10884;-56
2021/05/02 23:17:45;;;;;;;;;5.00;5.00;;;;;;;;8726572;40;10516;-57
2021/05/02 23:23:47;;;;;;;;;11.25;8.25;;;;;;;;8726737;40;10707;-57
2021/05/02 23:29:48;;;;;;;;;5.75;4.75;;;;;;;;8726805;40;10645;-56
2021/05/02 23:35:50;;;;;;;;;8.25;6.75;;;;;;;;8726481;40;10566;-57
2021/05/02 23:41:51;;;;;;;;;11.25;5.75;;;;;;;;8727257;40;10624;-57
2021/05/02 23:47:54;;;;;;;;;11.00;10.00;;;;;;;;8725716;40;10705;-57
2021/05/02 23:53:55;;;;;;;;;11.25;7.00;;;;;;;;8726369;40;10862;-57
2021/05/02 23:59:57;;;;;;;;;14.75;6.75;;;;;;;;8726138;40;11265;-57
